Time;durP1;ratioP1;P1;durP2;ratioP2;P2;SDS_P1;SDS_P2;PMS_P1;PMS_P2;Temp;Humidity;BMP_temperature;BMP_pressure;BME280_temperature;BME280_humidity;BME280_pressure;Samples;Min_cycle;Max_cycle;Signal;HPM_P1;HPM_P2
2022/09/08 00:00:39;;;;;;;10.00;6.47;;;16.90;1.00;;;;;;6155067;23;20053;-83
2022/09/08 00:03:31;;;;;;;10.32;7.40;;;16.90;99.90;;;;;;6157425;23;20025;-83
2022/09/08 00:06:18;;;;;;;11.77;7.88;;;16.80;99.90;;;;;;6136195;23;20017;-86
2022/09/08 00:09:06;;;;;;;12.63;7.28;;;16.80;99.90;;;;;;6154709;23;20044;-86
2022/09/08 00:11:54;;;;;;;11.80;8.07;;;16.70;1.00;;;;;;6156204;23;20032;-86
2022/09/08 00:14:41;;;;;;;9.10;8.00;;;16.70;1.00;;;;;;6158247;23;20442;-85
2022/09/08 00:17:31;;;;;;;13.30;8.32;;;16.70;99.90;;;;;;6156073;23;20147;-85
2022/09/08 00:20:21;;;;;;;13.35;9.55;;;16.70;99.90;;;;;;6156467;23;20026;-85
2022/09/08 00:23:09;;;;;;;11.30;8.57;;;16.70;1.00;;;;;;6157063;23;20033;-84
2022/09/08 00:25:58;;;;;;;14.93;8.57;;;16.80;99.90;;;;;;6157041;23;20121;-84
2022/09/08 00:28:46;;;;;;;13.98;8.63;;;16.80;1.00;;;;;;6156638;23;20018;-83
2022/09/08 00:31:41;;;;;;;18.08;9.82;;;16.80;99.90;;;;;;6156917;23;20022;-84
2022/09/08 00:34:29;;;;;;;14.88;9.50;;;16.60;99.90;;;;;;6155633;23;20037;-84
2022/09/08 00:37:17;;;;;;;16.20;9.70;;;16.60;99.90;;;;;;6136071;23;20029;-83
2022/09/08 00:40:04;;;;;;;18.17;10.88;;;16.60;99.90;;;;;;6154944;23;20083;-83
2022/09/08 00:43:02;;;;;;;15.48;10.57;;;16.60;99.90;;;;;;6156470;23;20041;-83
2022/09/08 00:45:49;;;;;;;14.23;9.55;;;16.60;99.90;;;;;;6159165;23;20037;-83
2022/09/08 00:48:43;;;;;;;17.10;10.38;;;16.60;99.90;;;;;;6138633;23;20049;-84
2022/09/08 00:51:31;;;;;;;12.93;8.82;;;16.70;99.90;;;;;;6161088;23;20030;-84
2022/09/08 00:54:19;;;;;;;13.90;8.85;;;16.60;99.90;;;;;;6161565;23;20076;-84
2022/09/08 00:57:07;;;;;;;8.40;6.07;;;16.60;1.00;;;;;;6159467;23;20448;-83
2022/09/08 00:59:54;;;;;;;10.15;6.13;;;16.60;43.60;;;;;;6136571;23;20310;-84
2022/09/08 01:02:45;;;;;;;10.70;6.32;;;16.60;99.90;;;;;;6158546;23;20036;-84
2022/09/08 01:05:40;;;;;;;10.18;6.90;;;16.60;99.90;;;;;;6153516;23;20029;-84
2022/09/08 01:15:06;;;;;;;13.43;6.88;;;16.50;99.90;;;;;;6175254;23;20026;-84
2022/09/08 01:17:55;;;;;;;11.23;7.82;;;16.40;1.00;;;;;;6177012;23;20026;-85
2022/09/08 01:21:02;;;;;;;8.25;6.25;;;16.40;99.90;;;;;;6178412;23;20061;-85
2022/09/08 01:24:11;;;;;;;7.28;6.25;;;16.40;99.90;;;;;;6173386;23;20056;-83
2022/09/08 01:27:11;;;;;;;10.60;7.18;;;16.40;99.90;;;;;;6146300;23;20080;-84
2022/09/08 01:30:04;;;;;;;12.45;6.82;;;16.30;99.90;;;;;;6162859;23;20025;-84
2022/09/08 01:32:52;;;;;;;8.25;6.32;;;16.40;32.00;;;;;;6158328;23;20086;-83
2022/09/08 01:35:40;;;;;;;8.60;6.90;;;16.30;99.90;;;;;;6162889;23;20022;-84
2022/09/08 01:38:27;;;;;;;8.45;5.50;;;16.30;99.90;;;;;;6144546;23;20041;-83
2022/09/08 01:41:16;;;;;;;8.18;5.90;;;16.30;99.90;;;;;;6141135;23;20061;-84
2022/09/08 01:44:06;;;;;;;6.38;3.80;;;16.30;52.30;;;;;;6162240;23;20033;-82
2022/09/08 01:46:53;;;;;;;3.80;2.92;;;16.30;1.00;;;;;;6161119;23;20026;-84
2022/09/08 01:49:41;;;;;;;8.05;3.05;;;16.30;99.90;;;;;;6161111;23;20029;-83
2022/09/08 01:52:30;;;;;;;4.05;2.60;;;16.30;1.00;;;;;;6161750;23;20084;-84
2022/09/08 01:55:20;;;;;;;2.83;2.20;;;16.30;99.90;;;;;;6155500;23;20033;-83
2022/09/08 01:58:08;;;;;;;4.03;2.25;;;16.30;99.90;;;;;;6134774;23;20084;-83
2022/09/08 02:00:57;;;;;;;3.83;3.10;;;16.20;57.80;;;;;;6155683;23;20504;-82
2022/09/08 02:03:45;;;;;;;4.78;2.50;;;16.20;29.90;;;;;;6159144;23;20026;-83
2022/09/08 02:06:32;;;;;;;3.15;2.38;;;16.20;1.00;;;;;;6156285;23;20029;-83
2022/09/08 02:09:20;;;;;;;2.90;2.05;;;16.10;8.70;;;;;;6156619;23;20160;-84
2022/09/08 02:12:08;;;;;;;2.55;2.00;;;16.00;1.00;;;;;;6137578;23;20021;-85
2022/09/08 02:14:57;;;;;;;2.15;1.92;;;16.00;1.00;;;;;;6136855;23;20413;-83
2022/09/08 02:17:44;;;;;;;5.75;2.10;;;15.90;24.90;;;;;;6137706;23;20029;-84
2022/09/08 02:20:31;;;;;;;2.60;2.20;;;15.90;99.90;;;;;;6157286;23;20048;-84
2022/09/08 02:23:18;;;;;;;5.03;2.30;;;15.80;99.90;;;;;;6156707;23;20082;-83
2022/09/08 02:26:06;;;;;;;2.25;2.00;;;15.80;99.90;;;;;;6158617;23;20080;-83
2022/09/08 02:28:54;;;;;;;2.47;1.92;;;15.80;99.90;;;;;;6155900;23;20361;-84
2022/09/08 02:31:41;;;;;;;3.78;1.90;;;15.80;99.90;;;;;;6156380;23;20025;-85
2022/09/08 02:34:29;;;;;;;2.58;2.22;;;15.70;99.90;;;;;;6135014;23;20476;-84
2022/09/08 02:37:16;;;;;;;4.00;2.15;;;15.70;99.90;;;;;;6157823;23;20088;-83
2022/09/08 02:40:04;;;;;;;2.45;2.03;;;15.70;99.90;;;;;;6156548;23;20401;-83
2022/09/08 02:42:51;;;;;;;3.40;2.00;;;15.70;1.00;;;;;;6155356;23;20102;-83
2022/09/08 02:45:39;;;;;;;2.90;1.90;;;15.70;1.00;;;;;;6156393;23;20025;-82
2022/09/08 02:48:27;;;;;;;3.75;2.08;;;15.70;1.00;;;;;;6155507;23;20117;-83
2022/09/08 02:51:18;;;;;;;2.28;1.90;;;15.70;1.00;;;;;;6136410;23;20036;-84
2022/09/08 02:54:06;;;;;;;2.50;1.90;;;15.70;1.00;;;;;;6156840;23;20084;-84
2022/09/08 02:56:53;;;;;;;2.00;1.80;;;15.70;1.00;;;;;;6157389;23;20029;-83
2022/09/08 02:59:40;;;;;;;3.58;1.83;;;15.70;99.90;;;;;;6156010;23;20026;-83
2022/09/08 03:02:27;;;;;;;2.33;1.60;;;15.70;1.00;;;;;;6156604;23;20409;-84
2022/09/08 03:05:15;;;;;;;3.60;1.60;;;15.60;1.00;;;;;;6134608;23;20318;-85
2022/09/08 03:08:03;;;;;;;1.52;1.42;;;15.70;99.90;;;;;;6136612;23;20029;-84
2022/09/08 03:10:51;;;;;;;3.70;2.03;;;15.70;99.90;;;;;;6136982;23;20337;-84
2022/09/08 03:13:39;;;;;;;2.25;1.55;;;15.70;99.90;;;;;;6138366;23;20032;-84
2022/09/08 03:16:30;;;;;;;2.00;1.70;;;15.70;99.90;;;;;;6155364;23;20346;-84
2022/09/08 03:19:17;;;;;;;4.75;1.63;;;15.60;99.90;;;;;;6136838;23;20358;-83
2022/09/08 03:22:07;;;;;;;2.97;1.70;;;15.60;99.90;;;;;;6155462;23;20064;-84
2022/09/08 03:24:58;;;;;;;2.28;1.80;;;15.60;1.00;;;;;;6156457;23;20477;-84
2022/09/08 03:27:47;;;;;;;4.43;1.80;;;15.60;1.00;;;;;;6156651;23;20125;-84
2022/09/08 03:30:34;;;;;;;4.95;1.80;;;15.50;1.00;;;;;;6156626;23;20052;-83
2022/09/08 03:33:21;;;;;;;3.65;1.50;;;15.60;1.00;;;;;;6134367;23;20040;-83
2022/09/08 03:36:10;;;;;;;4.78;1.80;;;15.50;1.00;;;;;;6155772;23;20033;-85
2022/09/08 03:38:58;;;;;;;2.35;1.73;;;15.50;1.00;;;;;;6155253;23;20088;-83
2022/09/08 03:41:45;;;;;;;4.63;2.17;;;15.50;34.80;;;;;;6134057;23;20405;-83
2022/09/08 03:44:35;;;;;;;2.58;1.60;;;15.50;99.90;;;;;;6156593;23;20041;-86
2022/09/08 03:47:23;;;;;;;3.58;1.70;;;15.40;99.90;;;;;;6154665;23;20417;-83
2022/09/08 03:50:14;;;;;;;3.67;1.90;;;15.40;99.90;;;;;;6155409;23;20036;-86
2022/09/08 03:53:01;;;;;;;1.40;1.30;;;15.40;99.90;;;;;;6135777;23;20309;-84
2022/09/08 03:55:51;;;;;;;1.52;1.42;;;15.40;73.90;;;;;;6136889;23;20029;-85
2022/09/08 03:58:38;;;;;;;2.42;1.90;;;15.40;99.90;;;;;;6157392;23;20429;-86
2022/09/08 04:01:26;;;;;;;2.83;1.85;;;15.40;99.90;;;;;;6157022;23;20029;-87
2022/09/08 04:04:14;;;;;;;2.78;1.65;;;15.30;99.90;;;;;;6155739;23;20025;-87
2022/09/08 04:07:07;;;;;;;1.77;1.52;;;15.30;97.00;;;;;;6135660;23;20030;-86
2022/09/08 04:09:56;;;;;;;4.35;1.60;;;15.30;1.00;;;;;;6134368;23;20029;-86
2022/09/08 04:12:43;;;;;;;2.20;1.52;;;15.30;73.30;;;;;;6135248;23;20025;-88
2022/09/08 04:15:31;;;;;;;1.40;1.30;;;15.30;99.90;;;;;;6155178;23;20026;-88
2022/09/08 04:18:18;;;;;;;2.60;1.85;;;15.30;99.90;;;;;;6154466;23;20025;-88
2022/09/08 04:21:05;;;;;;;2.78;1.70;;;15.20;76.60;;;;;;6154732;23;20104;-86
2022/09/08 04:23:53;;;;;;;2.78;1.80;;;15.30;71.60;;;;;;6154455;23;20033;-85
2022/09/08 04:26:44;;;;;;;1.90;1.70;;;15.20;99.90;;;;;;6154007;23;20064;-85
2022/09/08 04:29:34;;;;;;;3.58;1.63;;;15.20;99.90;;;;;;6155785;23;20105;-83
2022/09/08 04:32:21;;;;;;;2.53;1.55;;;15.20;99.90;;;;;;6136413;23;20039;-83
2022/09/08 04:35:09;;;;;;;2.88;1.60;;;15.20;99.90;;;;;;6155890;23;20314;-85
2022/09/08 04:37:56;;;;;;;2.17;1.58;;;15.20;99.90;;;;;;6155577;23;20057;-84
2022/09/08 04:40:43;;;;;;;1.80;1.40;;;15.20;99.90;;;;;;6155962;23;20108;-86
2022/09/08 04:43:32;;;;;;;2.25;1.48;;;15.10;99.90;;;;;;6155668;23;20076;-83
2022/09/08 04:46:19;;;;;;;3.00;1.83;;;15.10;1.00;;;;;;6156839;23;20029;-84
2022/09/08 04:49:09;;;;;;;3.75;1.88;;;15.10;1.00;;;;;;6136712;23;20033;-85
2022/09/08 04:51:57;;;;;;;3.15;1.60;;;15.10;1.00;;;;;;6155579;23;20096;-86
2022/09/08 04:54:44;;;;;;;1.98;1.67;;;15.10;6.90;;;;;;6157704;23;20092;-84
2022/09/08 04:57:34;;;;;;;3.17;2.00;;;15.10;52.70;;;;;;6157271;23;20029;-85
2022/09/08 05:00:21;;;;;;;1.90;1.80;;;15.00;99.90;;;;;;6153650;23;20096;-85
2022/09/08 05:03:08;;;;;;;3.60;1.95;;;15.10;99.90;;;;;;6155687;23;20040;-85
2022/09/08 05:05:55;;;;;;;2.83;2.25;;;15.10;99.90;;;;;;6156051;23;20104;-86
2022/09/08 05:08:48;;;;;;;4.78;1.60;;;15.10;1.00;;;;;;6134284;23;20151;-87
2022/09/08 05:11:35;;;;;;;;;;;15.00;1.00;;;;;;6156798;23;20096;-86
2022/09/08 05:14:25;;;;;;;1.95;1.70;;;15.00;99.90;;;;;;6157641;23;19930;-86
2022/09/08 05:17:14;;;;;;;3.20;2.22;;;15.00;99.90;;;;;;6157521;23;20389;-85
2022/09/08 05:20:08;;;;;;;3.20;2.08;;;15.10;1.00;;;;;;6156304;23;20048;-87
2022/09/08 05:22:58;;;;;;;2.28;2.08;;;15.00;1.00;;;;;;6135136;23;20032;-86
2022/09/08 05:25:47;;;;;;;2.85;2.15;;;15.00;99.90;;;;;;6156751;23;20053;-83
2022/09/08 05:28:36;;;;;;;3.83;2.35;;;15.10;99.90;;;;;;6156195;23;20662;-84
2022/09/08 05:31:29;;;;;;;2.80;2.22;;;15.00;1.00;;;;;;6137202;23;20029;-84
2022/09/08 05:34:16;;;;;;;4.57;1.80;;;15.00;1.00;;;;;;6137246;23;20029;-85
2022/09/08 05:37:05;;;;;;;3.65;2.30;;;15.10;99.90;;;;;;6158265;23;20100;-84
2022/09/08 05:39:55;;;;;;;9.90;2.67;;;15.00;1.00;;;;;;6137468;23;20030;-83
2022/09/08 05:42:45;;;;;;;2.72;1.85;;;15.10;15.90;;;;;;6156129;23;20155;-84
2022/09/08 05:45:32;;;;;;;2.97;1.92;;;15.00;99.90;;;;;;6158497;23;20463;-86
2022/09/08 05:48:19;;;;;;;2.10;1.90;;;15.00;1.00;;;;;;6159683;23;20037;-86
2022/09/08 05:51:11;;;;;;;2.10;1.90;;;15.00;99.90;;;;;;6156395;23;20053;-85
2022/09/08 05:54:00;;;;;;;2.22;1.58;;;14.90;1.00;;;;;;6156480;23;20026;-85
2022/09/08 05:56:48;;;;;;;2.65;1.30;;;14.90;69.10;;;;;;6159074;23;20313;-85
2022/09/08 05:59:35;;;;;;;2.05;1.30;;;14.80;91.40;;;;;;6157321;23;20057;-85
2022/09/08 06:02:22;;;;;;;1.42;1.33;;;14.80;1.00;;;;;;6156605;23;20035;-85
2022/09/08 06:05:12;;;;;;;1.75;1.40;;;14.80;20.20;;;;;;6157185;23;20037;-88
2022/09/08 06:07:59;;;;;;;5.15;1.58;;;14.80;99.90;;;;;;6159535;23;20047;-86
2022/09/08 06:10:53;;;;;;;3.10;1.85;;;14.70;99.90;;;;;;6162195;23;20073;-86
2022/09/08 06:13:42;;;;;;;1.45;1.35;;;14.70;99.90;;;;;;6159751;23;20029;-84
2022/09/08 06:16:30;;;;;;;1.83;1.23;;;14.60;1.00;;;;;;6136295;23;20100;-84
2022/09/08 06:19:17;;;;;;;1.52;1.40;;;14.60;1.00;;;;;;6139321;23;20040;-84
2022/09/08 06:22:04;;;;;;;1.98;1.40;;;14.60;99.90;;;;;;6159641;23;20138;-85
2022/09/08 06:24:54;;;;;;;1.60;1.10;;;14.60;99.90;;;;;;6158365;23;20537;-88
2022/09/08 06:27:56;;;;;;;2.80;1.95;;;14.50;1.00;;;;;;6159024;23;20030;-86
2022/09/08 06:30:50;;;;;;;2.97;1.23;;;14.50;1.00;;;;;;6163464;23;20036;-84
2022/09/08 06:33:44;;;;;;;2.42;1.20;;;14.50;1.00;;;;;;6163545;23;20051;-85
2022/09/08 06:37:00;;;;;;;3.63;1.40;;;14.50;1.00;;;;;;6161525;23;20117;-84
2022/09/08 06:39:54;;;;;;;2.78;1.50;;;14.50;1.00;;;;;;6161024;23;20088;-83
2022/09/08 06:42:57;;;;;;;3.92;1.30;;;14.50;1.00;;;;;;6157333;23;20136;-85
2022/09/08 06:45:50;;;;;;;2.05;1.20;;;14.50;1.00;;;;;;6157803;23;20432;-84
2022/09/08 06:48:37;;;;;;;1.70;1.13;;;14.50;99.90;;;;;;6134618;23;20022;-87
2022/09/08 06:51:58;;;;;;;2.78;1.13;;;14.50;99.90;;;;;;6158236;23;20175;-86
2022/09/08 06:55:06;;;;;;;2.15;1.20;;;14.50;99.90;;;;;;6138276;23;20018;-86
2022/09/08 06:58:23;;;;;;;4.05;1.90;;;14.50;99.90;;;;;;6139112;23;20127;-89
2022/09/08 07:01:43;;;;;;;1.40;1.30;;;14.50;60.30;;;;;;6159282;23;20025;-87
2022/09/08 07:04:51;;;;;;;1.75;1.13;;;14.50;98.80;;;;;;6160151;23;20391;-88
2022/09/08 07:08:19;;;;;;;4.35;1.20;;;14.60;1.00;;;;;;6159984;23;20030;-87
2022/09/08 07:11:38;;;;;;;2.22;1.33;;;14.60;1.00;;;;;;6140316;23;20111;-90
2022/09/08 07:15:10;;;;;;;2.05;1.13;;;14.70;99.90;;;;;;6140230;23;20032;-87
2022/09/08 07:18:28;;;;;;;4.03;1.20;;;14.80;99.90;;;;;;6159783;23;20108;-86
2022/09/08 07:21:41;;;;;;;2.85;0.85;;;15.00;99.90;;;;;;6167171;23;20070;-87
2022/09/08 07:24:35;;;;;;;2.92;1.05;;;15.00;1.00;;;;;;6163813;23;20030;-87
2022/09/08 07:27:23;;;;;;;3.45;0.93;;;15.20;1.00;;;;;;6144464;23;20036;-89
2022/09/08 07:30:16;;;;;;;2.05;0.85;;;15.30;99.90;;;;;;6160756;23;20104;-88
2022/09/08 07:33:45;;;;;;;2.63;1.17;;;15.50;99.90;;;;;;6157300;23;20021;-85
2022/09/08 07:36:52;;;;;;;3.47;1.05;;;15.70;99.90;;;;;;6157411;23;20022;-85
2022/09/08 07:39:51;;;;;;;6.10;2.80;;;15.90;85.70;;;;;;6157879;23;20492;-88
2022/09/08 07:42:41;;;;;;;3.80;2.25;;;15.90;23.80;;;;;;6136958;23;20124;-85
2022/09/08 07:45:48;;;;;;;1.73;1.20;;;15.90;1.00;;;;;;6159003;23;20021;-88
2022/09/08 07:49:03;;;;;;;1.50;0.93;;;15.80;1.00;;;;;;6157581;23;20093;-87
2022/09/08 07:52:17;;;;;;;2.35;1.00;;;15.80;1.00;;;;;;6155562;23;20108;-87
2022/09/08 07:55:37;;;;;;;1.65;1.08;;;15.70;1.00;;;;;;6120277;23;20036;-86
2022/09/08 07:58:51;;;;;;;2.13;0.88;;;15.80;1.00;;;;;;6158698;23;20025;-86
2022/09/08 08:02:08;;;;;;;0.73;0.73;;;16.40;1.00;;;;;;6136111;23;20487;-86
2022/09/08 08:05:25;;;;;;;3.42;1.05;;;17.00;1.00;;;;;;6157589;23;20363;-87
2022/09/08 08:08:32;;;;;;;1.70;0.88;;;17.00;99.90;;;;;;6157047;23;20017;-87
2022/09/08 08:11:44;;;;;;;1.13;0.77;;;16.80;99.90;;;;;;6136726;23;20048;-87
2022/09/08 08:14:41;;;;;;;2.05;1.20;;;16.80;99.90;;;;;;6158366;23;20021;-87
2022/09/08 08:18:00;;;;;;;0.93;0.73;;;17.40;99.90;;;;;;6159060;23;20049;-87
2022/09/08 08:21:18;;;;;;;2.13;0.70;;;18.40;99.90;;;;;;6158721;23;20461;-86
2022/09/08 08:24:12;;;;;;;1.15;0.73;;;18.80;99.90;;;;;;6142544;23;20382;-89
2022/09/08 08:27:22;;;;;;;1.30;0.73;;;18.90;99.90;;;;;;6159814;23;20029;-86
2022/09/08 08:30:15;;;;;;;1.00;0.65;;;19.60;99.90;;;;;;6161299;23;20047;-87
2022/09/08 08:33:13;;;;;;;1.45;0.60;;;20.10;99.90;;;;;;6160793;23;20021;-86
2022/09/08 08:36:06;;;;;;;1.80;0.77;;;19.80;99.90;;;;;;6156373;23;20418;-85
2022/09/08 08:39:23;;;;;;;2.75;0.80;;;19.90;99.90;;;;;;6158841;23;20171;-85
2022/09/08 08:42:31;;;;;;;2.88;0.93;;;20.60;99.90;;;;;;6156820;23;20029;-87
2022/09/08 08:45:32;;;;;;;1.70;0.95;;;21.50;99.90;;;;;;6155426;23;20044;-86
2022/09/08 08:48:41;;;;;;;2.20;0.82;;;21.00;99.90;;;;;;6158008;23;20030;-87
2022/09/08 08:51:47;;;;;;;1.73;0.98;;;19.60;99.90;;;;;;6157698;23;20406;-84
2022/09/08 08:54:54;;;;;;;1.95;1.00;;;18.20;99.90;;;;;;6137023;23;20381;-85
2022/09/08 08:58:13;;;;;;;1.65;0.93;;;18.50;99.90;;;;;;6161307;23;20025;-86
2022/09/08 09:01:43;;;;;;;1.63;0.82;;;19.90;99.90;;;;;;6159640;23;20040;-86
2022/09/08 09:04:59;;;;;;;1.48;0.73;;;21.40;99.90;;;;;;6162096;23;20037;-85
2022/09/08 09:08:08;;;;;;;2.78;0.80;;;21.80;73.50;;;;;;6138227;23;20273;-85
2022/09/08 09:11:32;;;;;;;2.90;0.80;;;20.70;63.80;;;;;;6156900;23;20044;-85
2022/09/08 09:14:34;;;;;;;1.10;1.00;;;19.80;94.00;;;;;;6137362;23;20282;-84
2022/09/08 09:17:54;;;;;;;1.45;0.80;;;19.00;99.90;;;;;;6158589;23;20470;-84
2022/09/08 09:20:49;;;;;;;3.85;1.15;;;19.00;99.90;;;;;;6156993;23;20107;-83
2022/09/08 09:23:54;;;;;;;1.52;0.88;;;18.90;99.90;;;;;;6156553;23;20025;-84
2022/09/08 09:26:49;;;;;;;3.30;0.95;;;18.50;99.90;;;;;;6158434;23;20025;-84
2022/09/08 09:29:37;;;;;;;4.82;0.88;;;18.40;99.90;;;;;;6160035;23;20026;-86
2022/09/08 09:32:50;;;;;;;0.98;0.77;;;18.50;99.90;;;;;;6159161;23;20224;-86
2022/09/08 09:35:48;;;;;;;7.10;0.98;;;18.70;99.90;;;;;;6097474;23;20029;-86
2022/09/08 09:38:44;;;;;;;1.85;0.70;;;19.20;99.90;;;;;;6127655;23;20469;-86
2022/09/08 09:41:40;;;;;;;1.33;0.60;;;19.50;99.90;;;;;;6128961;23;20030;-88
2022/09/08 09:45:04;;;;;;;2.20;0.80;;;20.80;92.60;;;;;;6126659;23;20124;-84
2022/09/08 09:48:15;;;;;;;3.35;1.00;;;21.60;46.70;;;;;;6128449;23;20326;-84
2022/09/08 09:51:42;;;;;;;1.73;0.68;;;22.10;31.00;;;;;;6126110;23;20123;-86
2022/09/08 09:54:31;;;;;;;1.65;0.60;;;22.90;6.60;;;;;;6125979;23;20036;-85
2022/09/08 09:57:36;;;;;;;1.83;0.75;;;22.80;1.00;;;;;;6125937;23;20081;-84
2022/09/08 10:00:28;;;;;;;2.05;0.73;;;21.70;1.00;;;;;;6127713;23;20037;-85
2022/09/08 10:03:15;;;;;;;4.50;1.00;;;20.70;1.00;;;;;;6126700;23;20045;-85
2022/09/08 10:06:23;;;;;;;1.33;0.93;;;20.10;10.40;;;;;;6126048;23;20406;-84
2022/09/08 10:10:06;;;;;;;2.92;0.82;;;19.70;18.80;;;;;;6126516;23;20022;-85
2022/09/08 10:13:22;;;;;;;2.85;0.70;;;20.90;12.20;;;;;;6039107;23;20122;-86
2022/09/08 10:16:31;;;;;;;2.70;1.00;;;21.50;1.00;;;;;;6104829;23;20053;-83
2022/09/08 10:19:43;;;;;;;1.42;0.80;;;21.00;1.00;;;;;;6126935;23;20426;-86
2022/09/08 10:22:36;;;;;;;1.02;0.77;;;20.50;1.00;;;;;;6128851;23;20449;-85
2022/09/08 10:26:10;;;;;;;2.65;0.63;;;20.00;1.00;;;;;;6127137;23;20151;-86
2022/09/08 10:29:22;;;;;;;2.85;0.82;;;19.80;1.00;;;;;;6100057;23;20036;-84
2022/09/08 10:32:32;;;;;;;1.17;0.80;;;20.00;1.00;;;;;;6125627;23;20101;-88
2022/09/08 10:35:29;;;;;;;1.60;0.55;;;21.00;1.00;;;;;;6126141;23;20092;-87
2022/09/08 10:38:41;;;;;;;3.00;0.60;;;20.90;1.00;;;;;;6126115;23;20030;-87
2022/09/08 10:42:21;;;;;;;1.42;0.65;;;20.30;1.00;;;;;;6125633;23;20100;-90
2022/09/08 10:45:39;;;;;;;6.40;1.00;;;20.00;1.00;;;;;;6106331;23;20104;-89
2022/09/08 10:48:54;;;;;;;3.30;0.80;;;19.50;1.00;;;;;;6127652;23;20030;-87
2022/09/08 10:51:44;;;;;;;3.67;0.90;;;19.40;1.00;;;;;;6124858;23;20422;-87
2022/09/08 10:54:55;;;;;;;2.92;0.75;;;19.50;1.00;;;;;;6125908;23;20033;-85
2022/09/08 10:58:22;;;;;;;3.85;0.80;;;19.70;1.00;;;;;;6127324;23;20026;-85
2022/09/08 11:01:21;;;;;;;0.95;0.50;;;20.10;1.00;;;;;;6126633;23;20049;-84
2022/09/08 11:04:46;;;;;;;4.05;0.70;;;20.70;1.00;;;;;;6127382;23;20492;-84
2022/09/08 11:07:52;;;;;;;2.53;0.60;;;22.50;1.00;;;;;;6126294;23;20072;-85
2022/09/08 11:16:38;;;;;;;1.70;0.70;;;24.00;1.00;;;;;;6163474;23;20025;-85
2022/09/08 11:19:39;;;;;;;0.73;0.52;;;24.40;1.00;;;;;;6134552;23;20377;-84
2022/09/08 11:23:20;;;;;;;2.03;0.70;;;24.90;1.00;;;;;;6167472;23;20347;-83
2022/09/08 11:26:34;;;;;;;1.67;0.57;;;25.60;1.00;;;;;;6109569;23;20084;-82
2022/09/08 11:29:33;;;;;;;2.97;0.60;;;23.00;1.00;;;;;;6157827;23;20060;-83
2022/09/08 11:32:36;;;;;;;1.27;0.77;;;22.50;1.00;;;;;;6155176;23;20177;-81
2022/09/08 11:35:39;;;;;;;1.00;0.57;;;22.20;1.00;;;;;;6156370;23;20342;-84
2022/09/08 11:38:57;;;;;;;2.47;0.93;;;21.90;1.00;;;;;;6155789;23;20053;-82
2022/09/08 11:42:00;;;;;;;1.63;0.60;;;21.50;1.00;;;;;;6157767;23;20021;-83
2022/09/08 11:44:53;;;;;;;0.70;0.60;;;21.10;1.00;;;;;;6155174;23;20022;-88
2022/09/08 11:48:04;;;;;;;3.40;0.88;;;21.10;1.00;;;;;;6156078;23;20139;-87
2022/09/08 11:50:56;;;;;;;2.47;0.63;;;21.00;1.00;;;;;;6155049;23;20025;-85
2022/09/08 11:54:13;;;;;;;3.50;0.98;;;20.50;1.00;;;;;;6153968;23;20453;-87
2022/09/08 11:57:50;;;;;;;1.50;0.70;;;20.30;1.00;;;;;;6155616;23;20073;-88
2022/09/08 12:01:15;;;;;;;2.60;0.70;;;19.80;1.00;;;;;;6068859;23;20112;-86
2022/09/08 12:04:14;;;;;;;4.93;1.40;;;19.40;1.00;;;;;;6156398;23;20136;-86
2022/09/08 12:07:39;;;;;;;1.23;0.80;;;18.90;1.00;;;;;;6154836;23;20037;-88
2022/09/08 12:10:45;;;;;;;3.20;0.88;;;18.90;72.20;;;;;;6152899;23;20263;-90
2022/09/08 12:13:55;;;;;;;4.07;0.88;;;18.90;99.90;;;;;;6155202;23;20036;-87
2022/09/08 12:17:05;;;;;;;1.35;0.80;;;19.50;99.90;;;;;;6153923;23;20033;-86
2022/09/08 12:20:00;;;;;;;1.25;0.88;;;20.90;35.90;;;;;;6156710;23;20033;-89
2022/09/08 12:23:09;;;;;;;2.28;0.50;;;23.00;1.00;;;;;;6156572;23;20044;-88
2022/09/08 12:26:35;;;;;;;1.02;0.40;;;24.00;1.00;;;;;;6162171;23;20029;-88
2022/09/08 12:29:39;;;;;;;0.80;0.30;;;24.20;1.00;;;;;;6158584;23;20064;-86
2022/09/08 12:32:54;;;;;;;1.48;0.50;;;24.90;1.00;;;;;;6162487;23;20456;-86
2022/09/08 12:36:07;;;;;;;1.50;0.30;;;25.60;1.00;;;;;;6156395;23;20033;-88
2022/09/08 12:39:16;;;;;;;2.20;0.60;;;25.40;1.00;;;;;;6158939;23;20036;-89
2022/09/08 12:42:34;;;;;;;6.15;0.40;;;25.90;1.00;;;;;;6159275;23;20084;-89
2022/09/08 12:45:48;;;;;;;2.28;0.55;;;27.20;1.00;;;;;;6159663;23;20026;-90
2022/09/08 12:48:48;;;;;;;4.60;0.70;;;27.70;1.00;;;;;;6159682;23;20025;-91
2022/09/08 12:51:36;;;;;;;1.67;0.60;;;27.50;1.00;;;;;;6157211;23;20057;-87
2022/09/08 12:54:51;;;;;;;1.25;0.50;;;26.10;1.00;;;;;;6155659;23;20026;-87
2022/09/08 12:57:55;;;;;;;1.38;0.55;;;24.90;1.00;;;;;;6156067;23;20381;-86
2022/09/08 13:01:05;;;;;;;1.95;0.50;;;24.10;1.00;;;;;;6158113;23;20064;-90
2022/09/08 13:04:01;;;;;;;2.97;0.50;;;24.10;1.00;;;;;;6157879;23;20039;-89
2022/09/08 13:07:08;;;;;;;2.17;0.50;;;24.30;1.00;;;;;;6159155;23;20026;-90
2022/09/08 13:10:05;;;;;;;1.20;0.60;;;25.00;1.00;;;;;;6161058;23;20048;-87
2022/09/08 13:13:11;;;;;;;2.75;0.77;;;23.80;1.00;;;;;;6162068;23;20043;-87
2022/09/08 13:16:08;;;;;;;2.15;0.60;;;23.40;1.00;;;;;;6159354;23;20021;-88
2022/09/08 13:19:43;;;;;;;2.95;0.60;;;22.90;1.00;;;;;;6161762;23;20041;-86
2022/09/08 13:22:48;;;;;;;1.67;0.70;;;22.70;1.00;;;;;;6037770;23;20055;-90
2022/09/08 13:25:53;;;;;;;3.63;0.60;;;22.60;1.00;;;;;;6039922;23;20023;-86
2022/09/08 13:29:06;;;;;;;1.38;0.43;;;24.40;1.00;;;;;;6161180;23;20068;-90
2022/09/08 13:32:42;;;;;;;3.22;0.60;;;26.80;1.00;;;;;;6135672;23;20025;-89
2022/09/08 13:36:06;;;;;;;3.03;0.50;;;28.20;1.00;;;;;;6159166;23;20321;-88
2022/09/08 13:39:05;;;;;;;5.00;0.60;;;28.40;1.00;;;;;;6160575;23;20033;-90
2022/09/08 13:42:03;;;;;;;2.50;0.63;;;27.40;1.00;;;;;;6159764;23;20026;-88
2022/09/08 13:45:31;;;;;;;0.98;0.45;;;27.00;1.00;;;;;;6161660;23;20026;-87
2022/09/08 13:48:29;;;;;;;1.83;0.52;;;25.80;1.00;;;;;;6047150;23;20066;-88
2022/09/08 13:51:39;;;;;;;2.65;0.70;;;27.00;1.00;;;;;;6160476;23;20026;-91
2022/09/08 13:54:59;;;;;;;3.83;0.40;;;28.80;1.00;;;;;;6156870;23;20026;-89
2022/09/08 13:57:56;;;;;;;1.27;0.43;;;28.70;1.00;;;;;;6155438;23;20025;-89
2022/09/08 14:01:10;;;;;;;1.73;0.50;;;27.50;1.00;;;;;;6157159;23;20032;-88
2022/09/08 14:04:12;;;;;;;2.75;0.57;;;25.50;1.00;;;;;;6131335;23;20026;-87
2022/09/08 14:07:05;;;;;;;2.25;0.70;;;23.40;1.00;;;;;;6156381;23;20035;-88
2022/09/08 14:10:43;;;;;;;2.95;0.73;;;22.10;1.00;;;;;;6159826;23;20029;-88
2022/09/08 14:13:41;;;;;;;3.42;0.70;;;21.90;1.00;;;;;;6127179;23;20349;-87
2022/09/08 14:16:33;;;;;;;2.28;0.60;;;22.50;1.00;;;;;;6161520;23;20100;-89
2022/09/08 14:20:01;;;;;;;3.28;0.80;;;24.00;1.00;;;;;;6158455;23;20076;-87
2022/09/08 14:23:05;;;;;;;2.80;0.70;;;23.20;1.00;;;;;;6042106;23;20039;-89
2022/09/08 14:26:23;;;;;;;5.40;0.73;;;22.30;1.00;;;;;;6160573;23;20021;-89
2022/09/08 14:29:28;;;;;;;2.13;0.90;;;21.50;1.00;;;;;;6158894;23;20021;-90
2022/09/08 14:32:34;;;;;;;4.38;0.95;;;22.90;1.00;;;;;;6161949;23;20025;-91
2022/09/08 14:35:48;;;;;;;2.67;0.60;;;24.80;1.00;;;;;;6159646;23;20119;-86
2022/09/08 14:38:52;;;;;;;3.38;0.82;;;24.80;1.00;;;;;;6159601;23;20085;-88
2022/09/08 14:41:57;;;;;;;3.60;1.42;;;23.70;1.00;;;;;;6168541;23;20056;-87
2022/09/08 14:45:00;;;;;;;2.38;0.75;;;22.70;1.00;;;;;;6175137;23;20029;-87
2022/09/08 14:47:55;;;;;;;3.05;0.75;;;22.40;1.00;;;;;;6176059;23;20029;-89
2022/09/08 14:51:02;;;;;;;2.53;0.60;;;24.40;1.00;;;;;;6169717;23;20081;-87
2022/09/08 14:53:55;;;;;;;2.65;0.70;;;26.30;1.00;;;;;;6171730;23;20085;-86
2022/09/08 14:57:20;;;;;;;3.42;0.70;;;27.70;1.00;;;;;;6176781;23;20041;-88
2022/09/08 15:00:14;;;;;;;3.35;0.93;;;27.50;1.00;;;;;;6176787;23;20088;-88
2022/09/08 15:03:43;;;;;;;5.15;1.02;;;26.90;1.00;;;;;;6172645;23;20025;-89
2022/09/08 15:06:37;;;;;;;2.55;0.80;;;26.00;1.00;;;;;;6054580;23;20056;-89
2022/09/08 15:09:38;;;;;;;1.63;0.77;;;26.30;1.00;;;;;;6180028;23;20017;-84
2022/09/08 15:12:26;;;;;;;3.60;0.60;;;25.30;1.00;;;;;;6180368;23;20037;-85
2022/09/08 15:15:30;;;;;;;2.80;0.90;;;25.10;1.00;;;;;;6180569;23;20086;-86
2022/09/08 15:18:17;;;;;;;3.50;0.98;;;26.10;1.00;;;;;;6177003;23;20049;-90
2022/09/08 15:21:22;;;;;;;1.20;0.73;;;26.80;1.00;;;;;;6180742;23;20049;-90
2022/09/08 15:24:39;;;;;;;4.00;0.98;;;27.60;1.00;;;;;;6179975;23;20097;-90
2022/09/08 15:27:29;;;;;;;3.28;0.80;;;28.10;1.00;;;;;;6171144;23;20060;-91
2022/09/08 15:30:22;;;;;;;2.70;1.05;;;27.40;1.00;;;;;;6168432;23;20018;-89
2022/09/08 15:33:18;;;;;;;3.00;0.82;;;26.80;1.00;;;;;;6166323;23;20297;-91
2022/09/08 15:36:15;;;;;;;5.18;0.98;;;26.80;1.00;;;;;;6162731;23;20021;-89
2022/09/08 15:39:27;;;;;;;2.55;0.77;;;27.00;1.00;;;;;;6159239;23;20279;-88
2022/09/08 15:42:22;;;;;;;2.67;0.90;;;27.40;1.00;;;;;;6159574;23;20044;-88
2022/09/08 15:45:34;;;;;;;5.45;1.02;;;26.70;1.00;;;;;;6159440;23;20101;-91
2022/09/08 15:48:53;;;;;;;4.00;1.17;;;26.20;1.00;;;;;;6159034;23;20076;-90
2022/09/08 15:52:21;;;;;;;2.65;0.68;;;25.50;1.00;;;;;;6157610;23;20029;-89